sensor_id;sensor_type;location;lat;lon;timestamp;temperature;humidity
42149;DHT22;64624;47.208;8.706;2024-01-11T00:00:16;13.80;49.10
42149;DHT22;64624;47.208;8.706;2024-01-11T00:02:42;13.80;49.10
42149;DHT22;64624;47.208;8.706;2024-01-11T00:05:08;13.80;49.10
42149;DHT22;64624;47.208;8.706;2024-01-11T00:07:34;13.80;49.10
42149;DHT22;64624;47.208;8.706;2024-01-11T00:10:01;13.80;49.10
42149;DHT22;64624;47.208;8.706;2024-01-11T00:12:27;13.80;49.10
42149;DHT22;64624;47.208;8.706;2024-01-11T00:14:53;13.80;49.10
42149;DHT22;64624;47.208;8.706;2024-01-11T00:17:18;13.80;49.10
42149;DHT22;64624;47.208;8.706;2024-01-11T00:19:44;13.80;49.10
42149;DHT22;64624;47.208;8.706;2024-01-11T00:22:10;13.80;49.10
42149;DHT22;64624;47.208;8.706;2024-01-11T00:24:35;13.80;49.10
42149;DHT22;64624;47.208;8.706;2024-01-11T00:27:01;13.80;49.20
42149;DHT22;64624;47.208;8.706;2024-01-11T00:29:27;13.80;49.20
42149;DHT22;64624;47.208;8.706;2024-01-11T00:31:54;13.80;49.20
42149;DHT22;64624;47.208;8.706;2024-01-11T00:34:20;13.80;49.10
42149;DHT22;64624;47.208;8.706;2024-01-11T00:36:47;13.80;49.10
42149;DHT22;64624;47.208;8.706;2024-01-11T00:39:13;13.80;49.10
42149;DHT22;64624;47.208;8.706;2024-01-11T00:41:40;13.80;49.10
42149;DHT22;64624;47.208;8.706;2024-01-11T00:44:05;13.70;49.10
42149;DHT22;64624;47.208;8.706;2024-01-11T00:46:33;13.80;49.10
42149;DHT22;64624;47.208;8.706;2024-01-11T00:48:58;13.80;49.10
42149;DHT22;64624;47.208;8.706;2024-01-11T00:51:24;13.80;49.10
42149;DHT22;64624;47.208;8.706;2024-01-11T00:53:50;13.80;49.10
42149;DHT22;64624;47.208;8.706;2024-01-11T00:56:19;13.80;49.10
42149;DHT22;64624;47.208;8.706;2024-01-11T00:58:45;13.70;49.00
42149;DHT22;64624;47.208;8.706;2024-01-11T01:01:11;13.80;49.00
42149;DHT22;64624;47.208;8.706;2024-01-11T01:03:38;13.80;49.00
42149;DHT22;64624;47.208;8.706;2024-01-11T01:06:04;13.80;49.00
42149;DHT22;64624;47.208;8.706;2024-01-11T01:08:30;13.80;49.00
42149;DHT22;64624;47.208;8.706;2024-01-11T01:10:55;13.80;48.90
42149;DHT22;64624;47.208;8.706;2024-01-11T01:13:21;13.70;48.90
42149;DHT22;64624;47.208;8.706;2024-01-11T01:15:48;13.80;48.90
42149;DHT22;64624;47.208;8.706;2024-01-11T01:18:14;13.80;48.90
42149;DHT22;64624;47.208;8.706;2024-01-11T01:20:39;13.80;49.00
42149;DHT22;64624;47.208;8.706;2024-01-11T01:23:05;13.70;48.90
42149;DHT22;64624;47.208;8.706;2024-01-11T01:25:31;13.80;48.90
42149;DHT22;64624;47.208;8.706;2024-01-11T01:27:58;13.80;48.80
42149;DHT22;64624;47.208;8.706;2024-01-11T01:30:24;13.80;48.80
42149;DHT22;64624;47.208;8.706;2024-01-11T01:32:50;13.70;48.80
42149;DHT22;64624;47.208;8.706;2024-01-11T01:35:16;13.70;48.80
42149;DHT22;64624;47.208;8.706;2024-01-11T01:37:41;13.80;48.80
42149;DHT22;64624;47.208;8.706;2024-01-11T01:40:08;13.80;48.90
42149;DHT22;64624;47.208;8.706;2024-01-11T01:42:34;13.80;48.80
42149;DHT22;64624;47.208;8.706;2024-01-11T01:45:00;13.70;48.90
42149;DHT22;64624;47.208;8.706;2024-01-11T01:47:26;13.80;48.80
42149;DHT22;64624;47.208;8.706;2024-01-11T01:49:53;13.80;48.90
42149;DHT22;64624;47.208;8.706;2024-01-11T01:52:20;13.80;48.90
42149;DHT22;64624;47.208;8.706;2024-01-11T01:54:47;13.80;49.30
42149;DHT22;64624;47.208;8.706;2024-01-11T01:57:14;13.80;48.90
42149;DHT22;64624;47.208;8.706;2024-01-11T01:59:42;13.80;48.80
42149;DHT22;64624;47.208;8.706;2024-01-11T02:02:09;13.70;48.80
42149;DHT22;64624;47.208;8.706;2024-01-11T02:04:36;13.80;48.80
42149;DHT22;64624;47.208;8.706;2024-01-11T02:07:02;13.80;48.80
42149;DHT22;64624;47.208;8.706;2024-01-11T02:09:28;13.80;48.80
42149;DHT22;64624;47.208;8.706;2024-01-11T02:11:55;13.70;48.70
42149;DHT22;64624;47.208;8.706;2024-01-11T02:14:21;13.80;48.80
42149;DHT22;64624;47.208;8.706;2024-01-11T02:16:47;13.80;48.80
42149;DHT22;64624;47.208;8.706;2024-01-11T02:19:17;13.80;48.80
42149;DHT22;64624;47.208;8.706;2024-01-11T02:21:46;13.80;48.80
42149;DHT22;64624;47.208;8.706;2024-01-11T02:24:12;13.70;48.80
42149;DHT22;64624;47.208;8.706;2024-01-11T02:26:58;13.70;48.80
42149;DHT22;64624;47.208;8.706;2024-01-11T02:29:26;13.70;48.80
42149;DHT22;64624;47.208;8.706;2024-01-11T02:31:51;13.70;48.80
42149;DHT22;64624;47.208;8.706;2024-01-11T02:34:17;13.80;48.80
42149;DHT22;64624;47.208;8.706;2024-01-11T02:36:44;13.80;48.80
42149;DHT22;64624;47.208;8.706;2024-01-11T02:39:10;13.80;48.80
42149;DHT22;64624;47.208;8.706;2024-01-11T02:41:37;13.80;48.80
42149;DHT22;64624;47.208;8.706;2024-01-11T02:44:03;13.70;48.70
42149;DHT22;64624;47.208;8.706;2024-01-11T02:46:30;13.70;48.70
42149;DHT22;64624;47.208;8.706;2024-01-11T02:48:56;13.80;48.80
42149;DHT22;64624;47.208;8.706;2024-01-11T02:51:22;13.80;48.80
42149;DHT22;64624;47.208;8.706;2024-01-11T02:53:48;13.80;48.80
42149;DHT22;64624;47.208;8.706;2024-01-11T02:56:13;13.80;48.80
42149;DHT22;64624;47.208;8.706;2024-01-11T02:58:39;13.80;48.80
42149;DHT22;64624;47.208;8.706;2024-01-11T03:01:05;13.80;48.80
42149;DHT22;64624;47.208;8.706;2024-01-11T03:03:31;13.80;48.80
42149;DHT22;64624;47.208;8.706;2024-01-11T03:05:57;13.80;48.80
42149;DHT22;64624;47.208;8.706;2024-01-11T03:08:23;13.70;48.70
42149;DHT22;64624;47.208;8.706;2024-01-11T03:10:48;13.70;48.80
42149;DHT22;64624;47.208;8.706;2024-01-11T03:13:14;13.80;48.80
42149;DHT22;64624;47.208;8.706;2024-01-11T03:15:40;13.80;48.80
42149;DHT22;64624;47.208;8.706;2024-01-11T03:18:05;13.80;48.80
42149;DHT22;64624;47.208;8.706;2024-01-11T03:20:31;13.80;48.80
42149;DHT22;64624;47.208;8.706;2024-01-11T03:22:57;13.70;48.80
42149;DHT22;64624;47.208;8.706;2024-01-11T03:25:23;13.80;48.80
42149;DHT22;64624;47.208;8.706;2024-01-11T03:27:49;13.80;48.80
42149;DHT22;64624;47.208;8.706;2024-01-11T03:30:15;13.70;48.70
42149;DHT22;64624;47.208;8.706;2024-01-11T03:32:41;13.70;48.70
42149;DHT22;64624;47.208;8.706;2024-01-11T03:35:08;13.80;48.80
42149;DHT22;64624;47.208;8.706;2024-01-11T03:37:34;13.70;48.70
42149;DHT22;64624;47.208;8.706;2024-01-11T03:40:01;13.70;48.80
42149;DHT22;64624;47.208;8.706;2024-01-11T03:42:27;13.80;48.80
42149;DHT22;64624;47.208;8.706;2024-01-11T03:44:53;13.80;48.80
42149;DHT22;64624;47.208;8.706;2024-01-11T03:47:18;13.70;48.80
42149;DHT22;64624;47.208;8.706;2024-01-11T03:49:44;13.70;48.80
42149;DHT22;64624;47.208;8.706;2024-01-11T03:52:10;13.80;48.80
42149;DHT22;64624;47.208;8.706;2024-01-11T03:54:36;13.80;48.80
42149;DHT22;64624;47.208;8.706;2024-01-11T03:57:01;13.80;48.70
42149;DHT22;64624;47.208;8.706;2024-01-11T03:59:27;13.80;48.80
42149;DHT22;64624;47.208;8.706;2024-01-11T04:01:53;13.80;48.80
42149;DHT22;64624;47.208;8.706;2024-01-11T04:04:19;13.80;48.70
42149;DHT22;64624;47.208;8.706;2024-01-11T04:06:45;13.80;48.80
42149;DHT22;64624;47.208;8.706;2024-01-11T04:09:10;13.80;48.80
42149;DHT22;64624;47.208;8.706;2024-01-11T04:11:36;13.70;48.80
42149;DHT22;64624;47.208;8.706;2024-01-11T04:14:02;13.80;48.80
42149;DHT22;64624;47.208;8.706;2024-01-11T04:16:28;13.80;48.80
42149;DHT22;64624;47.208;8.706;2024-01-11T04:18:54;13.80;48.80
42149;DHT22;64624;47.208;8.706;2024-01-11T04:21:26;13.70;48.70
42149;DHT22;64624;47.208;8.706;2024-01-11T04:23:56;13.80;48.70
42149;DHT22;64624;47.208;8.706;2024-01-11T04:26:21;13.80;48.70
42149;DHT22;64624;47.208;8.706;2024-01-11T04:28:49;13.80;48.70
42149;DHT22;64624;47.208;8.706;2024-01-11T04:31:16;13.70;48.60
42149;DHT22;64624;47.208;8.706;2024-01-11T04:33:45;13.70;48.50
42149;DHT22;64624;47.208;8.706;2024-01-11T04:36:11;13.70;48.60
42149;DHT22;64624;47.208;8.706;2024-01-11T04:38:37;13.80;48.60
42149;DHT22;64624;47.208;8.706;2024-01-11T04:41:10;13.70;48.50
42149;DHT22;64624;47.208;8.706;2024-01-11T04:43:39;13.80;48.50
42149;DHT22;64624;47.208;8.706;2024-01-11T04:46:20;13.70;48.50
42149;DHT22;64624;47.208;8.706;2024-01-11T04:48:47;13.80;48.40
42149;DHT22;64624;47.208;8.706;2024-01-11T04:51:15;13.70;48.40
42149;DHT22;64624;47.208;8.706;2024-01-11T04:53:41;13.70;48.30
42149;DHT22;64624;47.208;8.706;2024-01-11T04:56:08;13.80;48.40
42149;DHT22;64624;47.208;8.706;2024-01-11T04:58:35;13.70;48.40
42149;DHT22;64624;47.208;8.706;2024-01-11T05:01:04;13.70;48.20
42149;DHT22;64624;47.208;8.706;2024-01-11T05:03:31;13.70;48.20
42149;DHT22;64624;47.208;8.706;2024-01-11T05:05:58;13.70;48.30
42149;DHT22;64624;47.208;8.706;2024-01-11T05:08:25;13.80;48.40
42149;DHT22;64624;47.208;8.706;2024-01-11T05:10:50;13.70;48.40
42149;DHT22;64624;47.208;8.706;2024-01-11T05:13:17;13.80;48.40
42149;DHT22;64624;47.208;8.706;2024-01-11T05:15:43;13.80;48.40
42149;DHT22;64624;47.208;8.706;2024-01-11T05:18:09;13.80;48.50
42149;DHT22;64624;47.208;8.706;2024-01-11T05:20:36;13.80;48.50
42149;DHT22;64624;47.208;8.706;2024-01-11T05:23:02;13.80;48.60
42149;DHT22;64624;47.208;8.706;2024-01-11T05:25:29;13.80;48.60
42149;DHT22;64624;47.208;8.706;2024-01-11T05:27:58;13.70;48.60
42149;DHT22;64624;47.208;8.706;2024-01-11T05:30:26;13.70;48.50
42149;DHT22;64624;47.208;8.706;2024-01-11T05:32:55;13.80;48.50
42149;DHT22;64624;47.208;8.706;2024-01-11T05:35:23;13.80;48.50
42149;DHT22;64624;47.208;8.706;2024-01-11T05:37:52;13.80;48.50
42149;DHT22;64624;47.208;8.706;2024-01-11T05:40:20;13.70;48.50
42149;DHT22;64624;47.208;8.706;2024-01-11T05:42:45;13.70;48.90
42149;DHT22;64624;47.208;8.706;2024-01-11T05:45:12;13.70;48.60
42149;DHT22;64624;47.208;8.706;2024-01-11T05:47:37;13.70;48.50
42149;DHT22;64624;47.208;8.706;2024-01-11T05:50:03;13.70;48.50
42149;DHT22;64624;47.208;8.706;2024-01-11T05:52:30;13.70;48.60
42149;DHT22;64624;47.208;8.706;2024-01-11T05:54:56;13.70;48.60
42149;DHT22;64624;47.208;8.706;2024-01-11T05:57:22;13.70;48.60
42149;DHT22;64624;47.208;8.706;2024-01-11T05:59:48;13.70;48.50
42149;DHT22;64624;47.208;8.706;2024-01-11T06:02:14;13.70;48.70
42149;DHT22;64624;47.208;8.706;2024-01-11T06:04:40;13.70;48.60
42149;DHT22;64624;47.208;8.706;2024-01-11T06:07:06;13.70;48.70
42149;DHT22;64624;47.208;8.706;2024-01-11T06:09:32;13.70;48.60
42149;DHT22;64624;47.208;8.706;2024-01-11T06:11:57;13.80;48.70
42149;DHT22;64624;47.208;8.706;2024-01-11T06:14:23;13.70;48.70
42149;DHT22;64624;47.208;8.706;2024-01-11T06:16:49;13.70;48.70
42149;DHT22;64624;47.208;8.706;2024-01-11T06:19:15;13.80;48.80
42149;DHT22;64624;47.208;8.706;2024-01-11T06:21:41;13.70;48.70
42149;DHT22;64624;47.208;8.706;2024-01-11T06:24:06;13.80;48.80
42149;DHT22;64624;47.208;8.706;2024-01-11T06:26:32;13.70;48.70
42149;DHT22;64624;47.208;8.706;2024-01-11T06:28:58;13.70;48.70
42149;DHT22;64624;47.208;8.706;2024-01-11T06:31:24;13.70;48.70
42149;DHT22;64624;47.208;8.706;2024-01-11T06:33:50;13.70;48.70
42149;DHT22;64624;47.208;8.706;2024-01-11T06:36:15;13.70;48.70
42149;DHT22;64624;47.208;8.706;2024-01-11T06:38:41;13.80;48.60
42149;DHT22;64624;47.208;8.706;2024-01-11T06:41:06;13.70;48.50
42149;DHT22;64624;47.208;8.706;2024-01-11T06:43:32;13.70;48.50
42149;DHT22;64624;47.208;8.706;2024-01-11T06:46:03;13.70;48.50
42149;DHT22;64624;47.208;8.706;2024-01-11T06:48:29;13.70;48.40
42149;DHT22;64624;47.208;8.706;2024-01-11T06:50:54;13.70;48.40
42149;DHT22;64624;47.208;8.706;2024-01-11T06:53:20;13.70;48.40
42149;DHT22;64624;47.208;8.706;2024-01-11T06:55:46;13.80;48.40
42149;DHT22;64624;47.208;8.706;2024-01-11T06:58:13;13.70;48.20
42149;DHT22;64624;47.208;8.706;2024-01-11T07:00:39;13.70;48.10
42149;DHT22;64624;47.208;8.706;2024-01-11T07:03:11;13.70;48.10
42149;DHT22;64624;47.208;8.706;2024-01-11T07:05:37;13.70;48.20
42149;DHT22;64624;47.208;8.706;2024-01-11T07:08:03;13.70;48.20
42149;DHT22;64624;47.208;8.706;2024-01-11T07:10:31;13.70;48.10
42149;DHT22;64624;47.208;8.706;2024-01-11T07:12:57;13.70;48.10
42149;DHT22;64624;47.208;8.706;2024-01-11T07:15:23;13.70;48.10
42149;DHT22;64624;47.208;8.706;2024-01-11T07:17:49;13.70;48.10
42149;DHT22;64624;47.208;8.706;2024-01-11T07:20:15;13.70;48.10
42149;DHT22;64624;47.208;8.706;2024-01-11T07:22:42;13.70;48.10
42149;DHT22;64624;47.208;8.706;2024-01-11T07:25:08;13.70;48.00
42149;DHT22;64624;47.208;8.706;2024-01-11T07:27:33;13.70;48.10
42149;DHT22;64624;47.208;8.706;2024-01-11T07:30:00;13.70;48.10
42149;DHT22;64624;47.208;8.706;2024-01-11T07:32:28;13.80;48.10
42149;DHT22;64624;47.208;8.706;2024-01-11T07:34:53;13.70;47.90
42149;DHT22;64624;47.208;8.706;2024-01-11T07:37:19;13.70;47.50
42149;DHT22;64624;47.208;8.706;2024-01-11T07:39:46;13.70;47.80
42149;DHT22;64624;47.208;8.706;2024-01-11T07:42:12;13.60;47.40
42149;DHT22;64624;47.208;8.706;2024-01-11T07:44:38;13.60;47.20
42149;DHT22;64624;47.208;8.706;2024-01-11T07:47:04;13.60;47.80
42149;DHT22;64624;47.208;8.706;2024-01-11T07:49:30;13.60;47.50
42149;DHT22;64624;47.208;8.706;2024-01-11T07:51:56;13.70;48.30
42149;DHT22;64624;47.208;8.706;2024-01-11T07:54:22;13.60;47.30
42149;DHT22;64624;47.208;8.706;2024-01-11T07:56:48;13.60;47.30
42149;DHT22;64624;47.208;8.706;2024-01-11T07:59:14;13.70;47.50
42149;DHT22;64624;47.208;8.706;2024-01-11T08:01:40;13.60;46.40
42149;DHT22;64624;47.208;8.706;2024-01-11T08:04:06;13.60;46.20
42149;DHT22;64624;47.208;8.706;2024-01-11T08:06:32;13.60;46.40
42149;DHT22;64624;47.208;8.706;2024-01-11T08:08:58;13.70;46.60
42149;DHT22;64624;47.208;8.706;2024-01-11T08:11:23;13.70;46.60
42149;DHT22;64624;47.208;8.706;2024-01-11T08:13:49;13.70;46.70
42149;DHT22;64624;47.208;8.706;2024-01-11T08:16:18;13.70;46.90
42149;DHT22;64624;47.208;8.706;2024-01-11T08:18:44;13.70;47.00
42149;DHT22;64624;47.208;8.706;2024-01-11T08:21:11;13.70;47.00
42149;DHT22;64624;47.208;8.706;2024-01-11T08:23:42;13.70;47.00
42149;DHT22;64624;47.208;8.706;2024-01-11T08:26:14;13.70;47.10
42149;DHT22;64624;47.208;8.706;2024-01-11T08:28:41;13.70;47.30
42149;DHT22;64624;47.208;8.706;2024-01-11T08:31:07;13.70;47.20
42149;DHT22;64624;47.208;8.706;2024-01-11T08:33:34;13.70;47.30
42149;DHT22;64624;47.208;8.706;2024-01-11T08:36:01;13.70;47.30
42149;DHT22;64624;47.208;8.706;2024-01-11T08:38:29;13.70;47.40
42149;DHT22;64624;47.208;8.706;2024-01-11T08:40:55;13.70;47.90
42149;DHT22;64624;47.208;8.706;2024-01-11T08:43:21;13.70;47.40
42149;DHT22;64624;47.208;8.706;2024-01-11T08:45:48;13.70;47.50
42149;DHT22;64624;47.208;8.706;2024-01-11T08:48:14;13.70;47.50
42149;DHT22;64624;47.208;8.706;2024-01-11T08:50:39;13.70;47.50
42149;DHT22;64624;47.208;8.706;2024-01-11T08:53:05;13.70;47.60
42149;DHT22;64624;47.208;8.706;2024-01-11T08:55:31;13.70;47.60
42149;DHT22;64624;47.208;8.706;2024-01-11T08:57:58;13.70;48.90
42149;DHT22;64624;47.208;8.706;2024-01-11T09:00:23;13.60;48.80
42149;DHT22;64624;47.208;8.706;2024-01-11T09:02:49;13.60;47.50
42149;DHT22;64624;47.208;8.706;2024-01-11T09:05:15;13.60;47.60
42149;DHT22;64624;47.208;8.706;2024-01-11T09:07:41;13.70;47.70
42149;DHT22;64624;47.208;8.706;2024-01-11T09:10:08;13.70;47.80
42149;DHT22;64624;47.208;8.706;2024-01-11T09:12:35;13.70;47.70
42149;DHT22;64624;47.208;8.706;2024-01-11T09:15:00;13.70;47.80
42149;DHT22;64624;47.208;8.706;2024-01-11T09:17:26;13.70;47.80
42149;DHT22;64624;47.208;8.706;2024-01-11T09:19:52;13.70;47.80
42149;DHT22;64624;47.208;8.706;2024-01-11T09:22:21;13.70;47.90
42149;DHT22;64624;47.208;8.706;2024-01-11T09:24:46;13.70;47.90
42149;DHT22;64624;47.208;8.706;2024-01-11T09:27:12;13.80;48.00
42149;DHT22;64624;47.208;8.706;2024-01-11T09:29:43;13.80;48.10
42149;DHT22;64624;47.208;8.706;2024-01-11T09:32:09;13.70;48.70
42149;DHT22;64624;47.208;8.706;2024-01-11T09:34:35;13.70;48.40
42149;DHT22;64624;47.208;8.706;2024-01-11T09:37:01;13.70;48.20
42149;DHT22;64624;47.208;8.706;2024-01-11T09:39:26;13.80;48.30
42149;DHT22;64624;47.208;8.706;2024-01-11T09:42:05;13.70;48.40
42149;DHT22;64624;47.208;8.706;2024-01-11T09:44:33;13.70;47.90
42149;DHT22;64624;47.208;8.706;2024-01-11T09:47:00;13.80;48.00
42149;DHT22;64624;47.208;8.706;2024-01-11T09:49:28;13.80;48.00
42149;DHT22;64624;47.208;8.706;2024-01-11T09:51:55;13.80;47.90
42149;DHT22;64624;47.208;8.706;2024-01-11T09:54:25;13.80;48.00
42149;DHT22;64624;47.208;8.706;2024-01-11T09:56:53;13.80;47.80
42149;DHT22;64624;47.208;8.706;2024-01-11T09:59:20;13.80;46.10
42149;DHT22;64624;47.208;8.706;2024-01-11T10:01:48;13.80;46.10
42149;DHT22;64624;47.208;8.706;2024-01-11T10:04:15;13.80;46.30
42149;DHT22;64624;47.208;8.706;2024-01-11T10:06:42;13.80;46.80
42149;DHT22;64624;47.208;8.706;2024-01-11T10:09:09;13.70;46.60
42149;DHT22;64624;47.208;8.706;2024-01-11T10:11:35;13.70;46.60
42149;DHT22;64624;47.208;8.706;2024-01-11T10:14:01;13.70;46.80
42149;DHT22;64624;47.208;8.706;2024-01-11T10:16:29;13.80;47.00
42149;DHT22;64624;47.208;8.706;2024-01-11T10:18:56;13.80;47.10
42149;DHT22;64624;47.208;8.706;2024-01-11T10:21:27;13.80;47.10
42149;DHT22;64624;47.208;8.706;2024-01-11T10:23:54;13.80;47.10
42149;DHT22;64624;47.208;8.706;2024-01-11T10:26:20;13.80;47.30
42149;DHT22;64624;47.208;8.706;2024-01-11T10:28:47;13.80;46.20
42149;DHT22;64624;47.208;8.706;2024-01-11T10:31:13;13.90;44.90
42149;DHT22;64624;47.208;8.706;2024-01-11T10:33:42;17.20;42.20
42149;DHT22;64624;47.208;8.706;2024-01-11T10:36:07;20.80;37.70
42149;DHT22;64624;47.208;8.706;2024-01-11T10:38:38;23.20;34.10
42149;DHT22;64624;47.208;8.706;2024-01-11T10:41:06;24.90;31.80
42149;DHT22;64624;47.208;8.706;2024-01-11T10:43:32;26.70;31.10
42149;DHT22;64624;47.208;8.706;2024-01-11T10:46:00;28.20;29.70
42149;DHT22;64624;47.208;8.706;2024-01-11T10:48:30;29.00;29.40
42149;DHT22;64624;47.208;8.706;2024-01-11T10:51:01;29.80;29.00
42149;DHT22;64624;47.208;8.706;2024-01-11T10:53:45;30.40;28.80
42149;DHT22;64624;47.208;8.706;2024-01-11T10:56:12;30.80;28.00
42149;DHT22;64624;47.208;8.706;2024-01-11T10:58:42;30.60;28.20
42149;DHT22;64624;47.208;8.706;2024-01-11T11:01:10;29.00;28.30
42149;DHT22;64624;47.208;8.706;2024-01-11T11:03:37;27.10;29.10
42149;DHT22;64624;47.208;8.706;2024-01-11T11:06:04;25.30;30.10
42149;DHT22;64624;47.208;8.706;2024-01-11T11:08:32;23.70;31.50
42149;DHT22;64624;47.208;8.706;2024-01-11T11:11:01;22.50;32.60
42149;DHT22;64624;47.208;8.706;2024-01-11T11:13:30;21.50;33.80
42149;DHT22;64624;47.208;8.706;2024-01-11T11:15:56;20.70;35.00
42149;DHT22;64624;47.208;8.706;2024-01-11T11:18:24;20.00;35.80
42149;DHT22;64624;47.208;8.706;2024-01-11T11:20:51;19.40;36.70
42149;DHT22;64624;47.208;8.706;2024-01-11T11:23:18;19.00;37.40
42149;DHT22;64624;47.208;8.706;2024-01-11T11:25:48;18.60;38.10
42149;DHT22;64624;47.208;8.706;2024-01-11T11:28:17;18.30;38.70
42149;DHT22;64624;47.208;8.706;2024-01-11T11:30:44;17.90;39.30
42149;DHT22;64624;47.208;8.706;2024-01-11T11:33:16;17.70;39.80
42149;DHT22;64624;47.208;8.706;2024-01-11T11:35:42;17.40;40.20
42149;DHT22;64624;47.208;8.706;2024-01-11T11:38:08;17.10;40.70
42149;DHT22;64624;47.208;8.706;2024-01-11T11:40:38;16.90;41.60
42149;DHT22;64624;47.208;8.706;2024-01-11T11:43:08;16.80;41.50
42149;DHT22;64624;47.208;8.706;2024-01-11T11:45:35;16.60;41.90
42149;DHT22;64624;47.208;8.706;2024-01-11T11:48:01;16.40;42.20
42149;DHT22;64624;47.208;8.706;2024-01-11T11:50:29;16.30;42.50
42149;DHT22;64624;47.208;8.706;2024-01-11T11:52:57;16.10;42.80
42149;DHT22;64624;47.208;8.706;2024-01-11T11:55:25;16.00;42.90
42149;DHT22;64624;47.208;8.706;2024-01-11T11:57:52;15.90;43.20
42149;DHT22;64624;47.208;8.706;2024-01-11T12:00:20;15.80;43.40
42149;DHT22;64624;47.208;8.706;2024-01-11T12:02:47;15.70;43.60
42149;DHT22;64624;47.208;8.706;2024-01-11T12:05:14;15.60;43.80
42149;DHT22;64624;47.208;8.706;2024-01-11T12:07:40;15.50;44.00
42149;DHT22;64624;47.208;8.706;2024-01-11T12:10:06;15.50;44.20
42149;DHT22;64624;47.208;8.706;2024-01-11T12:12:34;15.40;44.30
42149;DHT22;64624;47.208;8.706;2024-01-11T12:15:00;15.40;44.50
42149;DHT22;64624;47.208;8.706;2024-01-11T12:17:27;15.30;44.70
42149;DHT22;64624;47.208;8.706;2024-01-11T12:19:53;15.20;44.80
42149;DHT22;64624;47.208;8.706;2024-01-11T12:22:19;15.20;44.90
42149;DHT22;64624;47.208;8.706;2024-01-11T12:24:46;15.20;45.10
42149;DHT22;64624;47.208;8.706;2024-01-11T12:27:12;15.10;44.80
42149;DHT22;64624;47.208;8.706;2024-01-11T12:29:39;15.30;43.60
42149;DHT22;64624;47.208;8.706;2024-01-11T12:32:05;18.90;41.20
42149;DHT22;64624;47.208;8.706;2024-01-11T12:34:32;22.50;36.60
42149;DHT22;64624;47.208;8.706;2024-01-11T12:36:58;25.30;33.50
42149;DHT22;64624;47.208;8.706;2024-01-11T12:39:27;27.10;31.60
42149;DHT22;64624;47.208;8.706;2024-01-11T12:41:54;28.50;30.40
42149;DHT22;64624;47.208;8.706;2024-01-11T12:44:23;29.50;29.80
42149;DHT22;64624;47.208;8.706;2024-01-11T12:46:51;30.10;29.40
42149;DHT22;64624;47.208;8.706;2024-01-11T12:49:17;30.70;29.10
42149;DHT22;64624;47.208;8.706;2024-01-11T12:51:42;31.20;28.90
42149;DHT22;64624;47.208;8.706;2024-01-11T12:54:12;31.60;28.70
42149;DHT22;64624;47.208;8.706;2024-01-11T12:56:44;31.90;28.50
42149;DHT22;64624;47.208;8.706;2024-01-11T12:59:11;32.30;28.30
42149;DHT22;64624;47.208;8.706;2024-01-11T13:01:38;32.30;28.00
42149;DHT22;64624;47.208;8.706;2024-01-11T13:04:04;32.20;28.00
42149;DHT22;64624;47.208;8.706;2024-01-11T13:06:30;30.80;28.40
42149;DHT22;64624;47.208;8.706;2024-01-11T13:08:57;28.90;29.80
42149;DHT22;64624;47.208;8.706;2024-01-11T13:11:24;27.00;30.30
42149;DHT22;64624;47.208;8.706;2024-01-11T13:13:51;25.50;31.50
42149;DHT22;64624;47.208;8.706;2024-01-11T13:16:20;24.30;33.00
42149;DHT22;64624;47.208;8.706;2024-01-11T13:18:46;23.30;34.70
42149;DHT22;64624;47.208;8.706;2024-01-11T13:21:12;22.50;36.20
42149;DHT22;64624;47.208;8.706;2024-01-11T13:23:38;21.80;37.40
42149;DHT22;64624;47.208;8.706;2024-01-11T13:26:06;21.20;38.60
42149;DHT22;64624;47.208;8.706;2024-01-11T13:28:35;20.80;40.70
42149;DHT22;64624;47.208;8.706;2024-01-11T13:31:01;20.40;41.20
42149;DHT22;64624;47.208;8.706;2024-01-11T13:33:27;20.10;42.10
42149;DHT22;64624;47.208;8.706;2024-01-11T13:35:54;19.80;42.80
42149;DHT22;64624;47.208;8.706;2024-01-11T13:38:20;19.50;44.00
42149;DHT22;64624;47.208;8.706;2024-01-11T13:40:46;19.20;43.60
42149;DHT22;64624;47.208;8.706;2024-01-11T13:43:12;18.90;43.80
42149;DHT22;64624;47.208;8.706;2024-01-11T13:45:38;18.70;44.00
42149;DHT22;64624;47.208;8.706;2024-01-11T13:48:04;18.50;44.10
42149;DHT22;64624;47.208;8.706;2024-01-11T13:50:31;18.30;44.30
42149;DHT22;64624;47.208;8.706;2024-01-11T13:52:57;18.10;44.40
42149;DHT22;64624;47.208;8.706;2024-01-11T13:55:23;17.90;44.60
42149;DHT22;64624;47.208;8.706;2024-01-11T13:57:50;17.80;44.80
42149;DHT22;64624;47.208;8.706;2024-01-11T14:00:17;17.60;45.00
42149;DHT22;64624;47.208;8.706;2024-01-11T14:02:45;17.50;45.10
42149;DHT22;64624;47.208;8.706;2024-01-11T14:05:11;17.30;45.20
42149;DHT22;64624;47.208;8.706;2024-01-11T14:07:40;17.20;45.30
42149;DHT22;64624;47.208;8.706;2024-01-11T14:10:07;17.10;45.50
42149;DHT22;64624;47.208;8.706;2024-01-11T14:12:34;16.90;45.60
42149;DHT22;64624;47.208;8.706;2024-01-11T14:15:05;16.90;45.70
42149;DHT22;64624;47.208;8.706;2024-01-11T14:17:35;16.80;45.80
42149;DHT22;64624;47.208;8.706;2024-01-11T14:20:01;16.60;45.90
42149;DHT22;64624;47.208;8.706;2024-01-11T14:22:27;16.60;46.10
42149;DHT22;64624;47.208;8.706;2024-01-11T14:24:53;16.50;46.20
42149;DHT22;64624;47.208;8.706;2024-01-11T14:27:20;16.40;46.40
42149;DHT22;64624;47.208;8.706;2024-01-11T14:29:47;16.40;46.40
42149;DHT22;64624;47.208;8.706;2024-01-11T14:32:14;16.30;46.50
42149;DHT22;64624;47.208;8.706;2024-01-11T14:34:42;16.20;47.00
42149;DHT22;64624;47.208;8.706;2024-01-11T14:37:12;16.30;47.60
42149;DHT22;64624;47.208;8.706;2024-01-11T14:39:39;16.20;47.90
42149;DHT22;64624;47.208;8.706;2024-01-11T14:42:05;16.10;48.40
42149;DHT22;64624;47.208;8.706;2024-01-11T14:44:31;16.20;48.80
42149;DHT22;64624;47.208;8.706;2024-01-11T14:46:56;16.10;49.00
42149;DHT22;64624;47.208;8.706;2024-01-11T14:49:23;16.10;49.20
42149;DHT22;64624;47.208;8.706;2024-01-11T14:51:50;16.00;50.60
42149;DHT22;64624;47.208;8.706;2024-01-11T14:54:16;16.00;49.80
42149;DHT22;64624;47.208;8.706;2024-01-11T14:56:44;16.00;49.50
42149;DHT22;64624;47.208;8.706;2024-01-11T14:59:09;15.90;49.50
42149;DHT22;64624;47.208;8.706;2024-01-11T15:01:35;15.90;49.60
42149;DHT22;64624;47.208;8.706;2024-01-11T15:04:01;15.80;49.50
42149;DHT22;64624;47.208;8.706;2024-01-11T15:06:26;15.80;49.50
42149;DHT22;64624;47.208;8.706;2024-01-11T15:08:52;15.70;49.40
42149;DHT22;64624;47.208;8.706;2024-01-11T15:11:18;15.80;49.50
42149;DHT22;64624;47.208;8.706;2024-01-11T15:13:45;15.60;49.40
42149;DHT22;64624;47.208;8.706;2024-01-11T15:16:14;15.60;49.40
42149;DHT22;64624;47.208;8.706;2024-01-11T15:18:40;15.60;49.40
42149;DHT22;64624;47.208;8.706;2024-01-11T15:21:06;15.60;49.40
42149;DHT22;64624;47.208;8.706;2024-01-11T15:23:32;15.50;49.30
42149;DHT22;64624;47.208;8.706;2024-01-11T15:26:00;15.50;49.30